Map

Track Data

SID SEASON NUMBER BASIN SUBBASIN NAME ISO_TIME NATURE LAT LON WMO_WIND WMO_PRES WMO_AGENCY TRACK_TYPE DIST2LAND LANDFALL IFLAG USA_AGENCY USA_ATCF_ID USA_LAT USA_LON USA_RECORD USA_STATUS USA_WIND USA_PRES USA_SSHS USA_R34_NE USA_R34_SE USA_R34_SW USA_R34_NW USA_R50_NE USA_R50_SE USA_R50_SW USA_R50_NW USA_R64_NE USA_R64_SE USA_R64_SW USA_R64_NW USA_POCI USA_ROCI USA_RMW USA_EYE TOKYO_LAT TOKYO_LON TOKYO_GRADE TOKYO_WIND TOKYO_PRES TOKYO_R50_DIR TOKYO_R50_LONG TOKYO_R50_SHORT TOKYO_R30_DIR TOKYO_R30_LONG TOKYO_R30_SHORT TOKYO_LAND CMA_LAT CMA_LON CMA_CAT CMA_WIND CMA_PRES HKO_LAT HKO_LON HKO_CAT HKO_WIND HKO_PRES NEWDELHI_LAT NEWDELHI_LON NEWDELHI_GRADE NEWDELHI_WIND NEWDELHI_PRES NEWDELHI_CI NEWDELHI_DP NEWDELHI_POCI REUNION_LAT REUNION_LON REUNION_TYPE REUNION_WIND REUNION_PRES REUNION_TNUM REUNION_CI REUNION_RMW REUNION_R34_NE REUNION_R34_SE REUNION_R34_SW REUNION_R34_NW REUNION_R50_NE REUNION_R50_SE REUNION_R50_SW REUNION_R50_NW REUNION_R64_NE REUNION_R64_SE REUNION_R64_SW REUNION_R64_NW BOM_LAT BOM_LON BOM_TYPE BOM_WIND BOM_PRES BOM_TNUM BOM_CI BOM_RMW BOM_R34_NE BOM_R34_SE BOM_R34_SW BOM_R34_NW BOM_R50_NE BOM_R50_SE BOM_R50_SW BOM_R50_NW BOM_R64_NE BOM_R64_SE BOM_R64_SW BOM_R64_NW BOM_ROCI BOM_POCI BOM_EYE BOM_POS_METHOD BOM_PRES_METHOD NADI_LAT NADI_LON NADI_CAT NADI_WIND NADI_PRES WELLINGTON_LAT WELLINGTON_LON WELLINGTON_WIND WELLINGTON_PRES DS824_LAT DS824_LON DS824_STAGE DS824_WIND DS824_PRES TD9636_LAT TD9636_LON TD9636_STAGE TD9636_WIND TD9636_PRES TD9635_LAT TD9635_LON TD9635_WIND TD9635_PRES TD9635_ROCI NEUMANN_LAT NEUMANN_LON NEUMANN_CLASS NEUMANN_WIND NEUMANN_PRES MLC_LAT MLC_LON MLC_CLASS MLC_WIND MLC_PRES USA_GUST BOM_GUST BOM_GUST_PER REUNION_GUST REUNION_GUST_PER USA_SEAHGT USA_SEARAD_NE USA_SEARAD_SE USA_SEARAD_SW USA_SEARAD_NW STORM_SPEED STORM_DIR
1933260N17093 1933 58 NI BB NOT_NAMED 1933-09-17 00:00:00 TS 17.1000 93.1000 main 140 140 _________O____ -1 17.1000 93.1000 TC 30 2 315
1933260N17093 1933 58 NI BB NOT_NAMED 1933-09-17 03:00:00 TS 17.1683 93.0317 main 152 152 _________PO___ -1 17.2025 92.9975 TC 30 17.1000 93.1000 1 2 317
1933260N17093 1933 58 NI BB NOT_NAMED 1933-09-17 06:00:00 TS 17.2575 92.9463 main 165 165 _________OP___ -1 17.3000 92.9000 TC 30 17.1937 93.0156 1 2 317
1933260N17093 1933 58 NI BB NOT_NAMED 1933-09-17 09:00:00 TS 17.3485 92.8578 main 165 165 _________PP___ -1 17.3925 92.8075 TC 30 17.2900 92.9250 1 3 316
1933260N17093 1933 58 NI BB NOT_NAMED 1933-09-17 12:00:00 TS 17.4456 92.7609 main 179 177 _________OP___ -1 17.5000 92.7000 TC 30 17.3912 92.8218 1 3 316
1933260N17093 1933 58 NI BB NOT_NAMED 1933-09-17 15:00:00 TS 17.5750 92.6288 main 192 192 _________PO___ -1 17.6500 92.5575 TC 30 17.5000 92.7000 1 4 315
1933260N17093 1933 58 NI BB NOT_NAMED 1933-09-17 18:00:00 TS 17.7089 92.4781 main 192 191 _________OP___ -1 17.8000 92.4000 TC 30 17.6179 92.5563 1 4 310
1933260N17093 1933 58 NI BB NOT_NAMED 1933-09-17 21:00:00 TS 17.8250 92.3213 main 199 192 _________PP___ -1 17.9075 92.2425 TC 30 17.7426 92.4001 1 4 308
1933260N17093 1933 58 NI BB NOT_NAMED 1933-09-18 00:00:00 TS 17.9355 92.1719 main 200 200 _________OP___ -1 18.0000 92.1000 TC 30 17.8710 92.2438 1 3 310
1933260N17093 1933 58 NI BB NOT_NAMED 1933-09-18 03:00:00 TS 18.0462 92.0462 main 211 200 _________PO___ -1 18.0925 91.9925 TC 31 18.0000 92.1000 1 3 317
1933260N17093 1933 58 NI BB NOT_NAMED 1933-09-18 06:00:00 TS 18.1625 91.9468 main 209 205 _________OP___ -1 18.2000 91.9000 TC 32 18.1249 91.9936 1 3 324
1933260N17093 1933 58 NI BB NOT_NAMED 1933-09-18 09:00:00 TS 18.2962 91.8537 main 205 205 _________PP___ -1 18.3425 91.8075 TC 33 18.2499 91.8998 1 3 326
1933260N17093 1933 58 NI BB NOT_NAMED 1933-09-18 12:00:00 TS 18.4375 91.7531 main 211 209 _________OP___ -1 18.5000 91.7000 TC 34 18.3749 91.8061 1 4 323
1933260N17093 1933 58 NI BB NOT_NAMED 1933-09-18 15:00:00 TS 18.5788 91.6288 main 216 207 _________PO___ -1 18.6575 91.5575 TC 36 18.5000 91.7000 2 4 317
1933260N17093 1933 58 NI BB NOT_NAMED 1933-09-18 18:00:00 TS 18.7043 91.4882 main 214 214 _________OP___ -1 18.8000 91.4000 TC 39 18.6087 91.5763 2 3 311
1933260N17093 1933 58 NI BB NOT_NAMED 1933-09-18 21:00:00 TS 18.8062 91.3510 main 214 214 _________PP___ -1 18.8924 91.2649 TC 42 18.7199 91.4371 2 4 308
1933260N17093 1933 58 NI BB NOT_NAMED 1933-09-19 00:00:00 TS 18.9231 91.1897 main 221 221 _________OP___ -1 19.0000 91.1000 TC 45 18.8462 91.2794 2 5 309
1933260N17093 1933 58 NI BB NOT_NAMED 1933-09-19 03:00:00 TS 19.0888 90.9788 main 222 222 _________PO___ -1 19.1775 90.8575 TC 45 19.0000 91.1000 3 6 312
1933260N17093 1933 58 NI BB NOT_NAMED 1933-09-19 06:00:00 TS 19.2982 90.7463 main 236 229 _________OP___ -1 19.4000 90.6000 TC 45 19.1963 90.8926 3 6 316
1933260N17093 1933 58 NI BB NOT_NAMED 1933-09-19 09:00:00 TS 19.5350 90.5288 main 239 223 _________PP___ -1 19.6500 90.3925 TC 45 19.4201 90.6652 3 6 320
1933260N17093 1933 58 NI BB NOT_NAMED 1933-09-19 12:00:00 TS 19.7794 90.3150 main 223 201 _________OP___ -1 19.9000 90.2000 TC 45 19.6588 90.4301 3 6 319
1933260N17093 1933 58 NI BB NOT_NAMED 1933-09-19 15:00:00 TS 20.0000 90.0999 main 201 175 _________PO___ -1 20.1000 89.9999 TC 45 19.9000 90.2000 3 6 319
1933260N17093 1933 58 NI BB NOT_NAMED 1933-09-19 18:00:00 TS 20.2103 89.9123 main 175 147 _________OP___ -1 20.3000 89.8000 TC 45 20.1205 90.0247 3 6 322
1933260N17093 1933 58 NI BB NOT_NAMED 1933-09-19 21:00:00 TS 20.4383 89.7369 main 147 108 _________PP___ -1 20.5349 89.6223 TC 45 20.3418 89.8515 3 6 323
1933260N17093 1933 58 NI BB NOT_NAMED 1933-09-20 00:00:00 TS 20.6836 89.5263 main 108 80 _________OP___ -1 20.8000 89.4000 TC 45 20.5672 89.6527 3 7 318
1933260N17093 1933 58 NI BB NOT_NAMED 1933-09-20 03:00:00 TS 20.9537 89.2438 main 67 44 _________PO___ -1 21.1074 89.0876 TC 41 20.8000 89.4000 3 8 312
1933260N17093 1933 58 NI BB NOT_NAMED 1933-09-20 06:00:00 TS 21.2233 88.8929 main 44 22 _________OP___ -1 21.4000 88.7000 TC 37 21.0466 89.0858 3 9 306
1933260N17093 1933 58 NI BB NOT_NAMED 1933-09-20 09:00:00 TS 21.4534 88.4959 main 11 0 _________PP___ -1 21.6074 88.2797 TC 33 21.2995 88.7121 3 9 300
1933260N17093 1933 58 NI BB NOT_NAMED 1933-09-20 12:00:00 TS 21.6763 88.0412 main 15 0 _________OP___ -1 21.8000 87.8000 TC 30 21.5526 88.2824 3 10 298
1933260N17093 1933 58 NI BB NOT_NAMED 1933-09-20 15:00:00 TS 21.9249 87.5363 main 0 0 _________PO___ -1 22.0499 87.2725 TC 30 21.8000 87.8000 1 11 297
1933260N17093 1933 58 NI BB NOT_NAMED 1933-09-20 18:00:00 TS 22.1768 86.9657 main 0 0 _________OP___ -1 22.3000 86.7000 TC 30 22.0536 87.2314 1 12 294
1933260N17093 1933 58 NI BB NOT_NAMED 1933-09-20 21:00:00 TS 22.4097 86.3419 main 0 0 _________PP___ -1 22.5228 86.0626 TC 30 22.2966 86.6211 1 12 291
1933260N17093 1933 58 NI BB NOT_NAMED 1933-09-21 00:00:00 TS 22.6081 85.7626 main 0 0 _________OP___ -1 22.7000 85.5000 TC 30 22.5162 86.0251 1 10 290
1933260N17093 1933 58 NI BB NOT_NAMED 1933-09-21 03:00:00 TS 22.7573 85.3273 main 0 0 _________PO___ -1 22.8146 85.1547 TC 30 22.7000 85.5000 1 7 290
1933260N17093 1933 58 NI BB NOT_NAMED 1933-09-21 06:00:00 TS 22.8674 85.0099 main 0 0 _________OP___ -1 22.9000 84.9000 TC 30 22.8347 85.1199 1 6 290
1933260N17093 1933 58 NI BB NOT_NAMED 1933-09-21 09:00:00 TS 22.9680 84.7081 main 0 0 _________PP___ -1 22.9999 84.6000 TC 30 22.9360 84.8163 1 6 290
1933260N17093 1933 58 NI BB NOT_NAMED 1933-09-21 12:00:00 TS 23.0597 84.4273 main 0 0 _________OP___ -1 23.1000 84.3000 TC 30 23.0194 84.5545 1 5 290
1933260N17093 1933 58 NI BB NOT_NAMED 1933-09-21 15:00:00 TS 23.1500 84.1500 main 0 0 _________PO___ -1 23.1999 84.0000 TC 30 23.1000 84.3000 1 6 290
1933260N17093 1933 58 NI BB NOT_NAMED 1933-09-21 18:00:00 TS 23.2499 83.8520 main 0 0 _________OP___ -1 23.3000 83.7000 TC 30 23.1998 84.0039 1 6 290
1933260N17093 1933 58 NI BB NOT_NAMED 1933-09-21 21:00:00 TS 23.3498 83.5574 main 0 0 _________PP___ -1 23.3999 83.4074 TC 30 23.2997 83.7073 1 6 290
1933260N17093 1933 58 NI BB NOT_NAMED 1933-09-22 00:00:00 TS 23.4499 83.2535 main 0 0 _________OP___ -1 23.5000 83.1000 TC 30 23.3998 83.4070 1 6 289
1933260N17093 1933 58 NI BB NOT_NAMED 1933-09-22 03:00:00 TS 23.5500 82.9250 main 0 0 _________PO___ -1 23.6000 82.7500 TC 30 23.5000 83.1000 1 6 288
1933260N17093 1933 58 NI BB NOT_NAMED 1933-09-22 06:00:00 TS 23.6480 82.5870 main 0 0 _________OP___ -1 23.7000 82.4000 TC 30 23.5959 82.7739 1 6 288
1933260N17093 1933 58 NI BB NOT_NAMED 1933-09-22 09:00:00 TS 23.7462 82.2674 main 0 0 _________PP___ -1 23.7999 82.0924 TC 30 23.6925 82.4423 1 6 289
1933260N17093 1933 58 NI BB NOT_NAMED 1933-09-22 12:00:00 TS 23.8464 81.9573 main 0 0 _________OP___ -1 23.9000 81.8000 TC 30 23.7928 82.1145 1 6 289
1933260N17093 1933 58 NI BB NOT_NAMED 1933-09-22 15:00:00 TS 23.9462 81.6462 main 0 0 _________PO___ -1 23.9925 81.4924 TC 30 23.9000 81.8000 1 6 291
1933260N17093 1933 58 NI BB NOT_NAMED 1933-09-22 18:00:00 TS 24.0609 81.3452 main 0 0 _________OP___ -1 24.1000 81.2000 TC 30 24.0218 81.4904 1 6 295
1933260N17093 1933 58 NI BB NOT_NAMED 1933-09-22 21:00:00 TS 24.2000 81.0626 main 0 0 _________PP___ -1 24.2500 80.9275 TC 30 24.1500 81.1976 1 6 300
1933260N17093 1933 58 NI BB NOT_NAMED 1933-09-23 00:00:00 TS 24.3391 80.8155 main 0 0 _________OP___ -1 24.4000 80.7000 TC 30 24.2781 80.9310 1 5 302
1933260N17093 1933 58 NI BB NOT_NAMED 1933-09-23 03:00:00 TS 24.4537 80.6174 main 0 0 _________PO___ -1 24.5074 80.5349 TC 30 24.4000 80.7000 1 4 303
1933260N17093 1933 58 NI BB NOT_NAMED 1933-09-23 06:00:00 TS 24.5555 80.4549 main 0 0 _________OP___ -1 24.6000 80.4000 TC 30 24.5110 80.5098 1 4 306
1933260N17093 1933 58 NI BB NOT_NAMED 1933-09-23 09:00:00 TS 24.6611 80.3024 main 0 0 _________PP___ -1 24.7075 80.2500 TC 30 24.6147 80.3547 1 3 307
1933260N17093 1933 58 NI BB NOT_NAMED 1933-09-23 12:00:00 TS 24.7555 80.1612 main 0 0 _________OP___ -1 24.8000 80.1000 TC 30 24.7111 80.2223 1 3 303
1933260N17093 1933 58 NI BB NOT_NAMED 1933-09-23 15:00:00 TS 24.8250 80.0212 main 0 0 _________PO___ -1 24.8500 79.9425 TC 30 24.8000 80.1000 1 3 297
1933260N17093 1933 58 NI BB NOT_NAMED 1933-09-23 18:00:00 TS 24.8808 79.8938 main 0 0 _________OP___ -1 24.9000 79.8000 TC 30 24.8617 79.9877 1 2 301
1933260N17093 1933 58 NI BB NOT_NAMED 1933-09-23 21:00:00 TS 24.9485 79.7971 main 0 0 _________PP___ -1 24.9774 79.7149 TC 30 24.9197 79.8793 1 3 310
1933260N17093 1933 58 NI BB NOT_NAMED 1933-09-24 00:00:00 TS 25.0464 79.6782 main 0 0 _________OP___ -1 25.1000 79.6000 TC 30 24.9929 79.7563 1 4 311
1933260N17093 1933 58 NI BB NOT_NAMED 1933-09-24 03:00:00 TS 25.1925 79.4863 main 0 0 _________PO___ -1 25.2851 79.3726 TC 30 25.1000 79.6000 1 5 310
1933260N17093 1933 58 NI BB NOT_NAMED 1933-09-24 06:00:00 TS 25.3821 79.2391 main 0 0 _________OP___ -1 25.5000 79.1000 TC 30 25.2643 79.3782 1 6 311
1933260N17093 1933 58 NI BB NOT_NAMED 1933-09-24 09:00:00 TS 25.5814 78.9827 main 0 0 _________PP___ -1 25.7000 78.8425 TC 30 25.4628 79.1230 1 6 311
1933260N17093 1933 58 NI BB NOT_NAMED 1933-09-24 12:00:00 TS 25.7899 78.7281 main 0 0 _________OP___ -1 25.9000 78.6000 TC 30 25.6799 78.8562 1 6 314
1933260N17093 1933 58 NI BB NOT_NAMED 1933-09-24 15:00:00 TS 26.0000 78.4962 main 0 0 _________PO___ -1 26.0999 78.3924 TC 30 25.9000 78.6000 1 6 316
1933260N17093 1933 58 NI BB NOT_NAMED 1933-09-24 18:00:00 TS 26.1919 78.2980 main 0 0 _________OP___ -1 26.3000 78.2000 TC 30 26.1108 78.3715 1 5 318
1933260N17093 1933 58 NI BB NOT_NAMED 1933-09-24 21:00:00 TS 26.3875 78.1016 main 0 0 _________PP___ -1 26.5001 78.0027 TC 30 26.3124 78.1675 1 5 318
1933260N17093 1933 58 NI AS NOT_NAMED 1933-09-25 00:00:00 TS 26.5719 77.9199 main 0 0 _________OP___ -1 26.7000 77.8000 TC 30 26.5078 77.9798 1 4 319
1933260N17093 1933 58 NI AS NOT_NAMED 1933-09-25 03:00:00 NR 26.7000 77.8000 main 0 __________O___ -1 TC 26.7000 77.8000 1 3 322

About IBTrACS Database

This database is a web-friendly format of International Best Track Archive for Climate Stewardship (IBTrACS), a global best track data archive curated by NOAA dating back to 1842.

Updated: 2021-11-26